Terminal Aerodrome Forecast
Issued by NWS

Home | Current Version | Previous Version | Text Only | Print | Product List | Glossary On
Versions: 1 2 3 4 5 6 7 8 9 10 11 12 13 14 15 16 17 18 19 20 21 22 23 24 25 26 27 28 29 30 31 32
000
FTAK31 PAJK 170537
TAFAKW
TAF
PAKW 170537Z 1706/1806 17009KT 3SM RA BR OVC015 WS015/21040KT
     FM171300 20009KT 5SM -RA BR OVC020 WS020/26035KT
     FM171800 20008KT P6SM -RA SCT025 OVC040
     AMD LTD TO CLD VIS AND WIND=

USA.gov is the U.S. government's official web portal to all federal, state and local government web resources and services.